Terminal Aerodrome Forecast
Issued by NWS

Home | Current Version | Previous Version | Text Only | Print | Product List | Glossary Off
Versions: 1 2 3 4 5 6 7 8 9 10 11 12 13 14 15 16 17

000
FTUS43 KOAX 150520
TAFCDR
TAF
KCDR 150520Z 1506/1606 18032G47KT P6SM SKC
     FM150900 18025G35KT P6SM SCT100
     FM151500 18015G25KT P6SM BKN080
     FM151800 07011G22KT P6SM OVC040
     FM152300 05015G25KT 4SM -SHRA OVC035
     FM160200 32015KT 3SM -SHRA OVC025=

USA.gov is the U.S. government's official web portal to all federal, state and local government web resources and services.